Time;durP1;ratioP1;P1;durP2;ratioP2;P2;SDS_P1;SDS_P2;PMS_P1;PMS_P2;Temp;Humidity;BMP_temperature;BMP_pressure;BME280_temperature;BME280_humidity;BME280_pressure;Samples;Min_cycle;Max_cycle;Signal;HPM_P1;HPM_P2
2021/04/30 00:00:16;;;;;;;5.80;5.50;;;19.30;32.10;;;;;;5031458;28;20177;-74
2021/04/30 00:02:42;;;;;;;5.70;5.40;;;19.20;32.10;;;;;;5031613;28;20184;-74
2021/04/30 00:05:09;;;;;;;5.13;4.83;;;19.20;32.10;;;;;;5031205;28;20498;-74
2021/04/30 00:07:35;;;;;;;6.33;6.00;;;19.20;32.10;;;;;;5033270;28;20204;-74
2021/04/30 00:10:00;;;;;;;5.40;5.10;;;19.20;32.10;;;;;;5031270;28;20438;-74
2021/04/30 00:12:26;;;;;;;5.30;5.00;;;19.20;32.10;;;;;;5031308;28;20475;-74
2021/04/30 00:14:52;;;;;;;5.67;5.37;;;19.20;32.10;;;;;;5031039;28;20188;-74
2021/04/30 00:17:17;;;;;;;5.23;4.93;;;19.20;32.10;;;;;;5031227;28;20635;-74
2021/04/30 00:19:43;;;;;;;5.27;4.97;;;19.20;32.20;;;;;;5031369;28;20661;-74
2021/04/30 00:22:08;;;;;;;6.00;5.60;;;19.20;32.20;;;;;;5031231;28;20177;-74
2021/04/30 00:24:35;;;;;;;5.23;4.93;;;19.20;32.10;;;;;;5031241;28;20172;-74
2021/04/30 00:27:00;;;;;;;5.90;5.60;;;19.20;32.20;;;;;;5031076;28;20183;-74
2021/04/30 00:29:26;;;;;;;5.27;4.97;;;19.20;32.20;;;;;;5031128;28;20423;-74
2021/04/30 00:31:51;;;;;;;6.00;5.50;;;19.10;32.00;;;;;;5031271;28;20222;-74
2021/04/30 00:34:17;;;;;;;5.50;5.20;;;19.20;32.20;;;;;;5029995;28;20226;-74
2021/04/30 00:36:43;;;;;;;5.13;4.83;;;19.20;32.20;;;;;;5030829;28;20177;-74
2021/04/30 00:39:08;;;;;;;4.90;4.70;;;19.20;32.10;;;;;;5031189;28;20272;-74
2021/04/30 00:41:34;;;;;;;5.00;4.70;;;19.20;32.20;;;;;;5031221;28;20250;-74
2021/04/30 00:44:06;;;;;;;5.07;4.77;;;19.20;32.20;;;;;;5029662;28;20192;-74
2021/04/30 00:46:33;;;;;;;5.20;4.90;;;19.10;32.10;;;;;;5030990;28;20177;-74
2021/04/30 00:48:59;;;;;;;5.10;4.70;;;19.10;32.10;;;;;;5031182;28;20483;-74
2021/04/30 00:51:25;;;;;;;5.13;4.83;;;19.20;32.20;;;;;;5034436;28;20459;-74
2021/04/30 00:53:51;;;;;;;5.27;5.03;;;19.10;32.10;;;;;;5034489;28;20415;-74
2021/04/30 00:56:17;;;;;;;4.80;4.60;;;19.20;32.20;;;;;;5034500;28;20179;-74
2021/04/30 00:58:43;;;;;;;5.87;5.47;;;19.20;32.20;;;;;;5034292;28;20806;-74
2021/04/30 01:01:09;;;;;;;5.17;4.87;;;19.10;32.10;;;;;;5034572;28;20690;-74
2021/04/30 01:03:35;;;;;;;4.90;4.67;;;19.10;32.10;;;;;;5033131;28;20208;-74
2021/04/30 01:06:01;;;;;;;5.13;4.90;;;19.10;32.10;;;;;;5034068;28;20572;-74
2021/04/30 01:08:27;;;;;;;5.53;5.23;;;19.10;32.10;;;;;;5034230;28;20481;-74
2021/04/30 01:10:52;;;;;;;5.03;4.83;;;19.10;32.10;;;;;;5034365;28;20469;-74
2021/04/30 01:13:18;;;;;;;5.20;4.90;;;19.10;32.10;;;;;;5034018;28;20270;-74
2021/04/30 01:15:43;;;;;;;4.60;4.40;;;19.10;32.10;;;;;;5033973;28;20538;-74
2021/04/30 01:18:09;;;;;;;4.33;4.13;;;19.10;32.20;;;;;;5034063;28;20228;-74
2021/04/30 01:20:35;;;;;;;5.10;4.80;;;19.10;32.20;;;;;;5033901;28;20169;-74
2021/04/30 01:23:00;;;;;;;5.10;4.80;;;19.10;32.10;;;;;;5034066;28;20188;-74
2021/04/30 01:25:29;;;;;;;5.30;5.00;;;19.10;32.10;;;;;;5033886;28;20259;-74
2021/04/30 01:27:55;;;;;;;4.80;4.50;;;19.10;32.10;;;;;;5033748;28;20196;-74
2021/04/30 01:30:22;;;;;;;4.57;4.37;;;19.10;32.10;;;;;;5033948;28;20415;-74
2021/04/30 01:32:48;;;;;;;4.70;4.40;;;19.10;32.10;;;;;;5033770;28;20462;-74
2021/04/30 01:35:19;;;;;;;4.70;4.50;;;19.00;32.00;;;;;;5032175;28;20450;-74
2021/04/30 01:37:50;;;;;;;4.97;4.73;;;19.10;32.10;;;;;;5033747;28;20208;-74
2021/04/30 01:40:18;;;;;;;4.73;4.53;;;19.10;32.10;;;;;;5033733;28;20420;-74
2021/04/30 01:43:05;;;;;;;4.90;4.50;;;19.00;32.00;;;;;;5033465;28;20418;-74
2021/04/30 01:45:35;;;;;;;5.00;4.70;;;19.00;32.00;;;;;;5033704;28;20427;-74
2021/04/30 01:48:03;;;;;;;5.00;4.70;;;19.00;32.00;;;;;;5033431;28;20431;-74
2021/04/30 01:50:29;;;;;;;4.93;4.63;;;19.00;32.10;;;;;;5033382;28;20415;-74
2021/04/30 01:52:54;;;;;;;4.57;4.37;;;19.00;32.10;;;;;;5033457;28;20516;-74
2021/04/30 01:55:24;;;;;;;4.20;3.90;;;19.10;32.10;;;;;;5033333;28;20208;-74
2021/04/30 01:57:49;;;;;;;5.00;4.70;;;19.00;32.00;;;;;;5033203;28;20201;-74
2021/04/30 02:00:19;;;;;;;4.47;4.20;;;19.00;32.10;;;;;;5033019;28;20408;-74
2021/04/30 02:02:47;;;;;;;4.30;4.10;;;19.00;32.00;;;;;;5033323;28;20177;-74
2021/04/30 02:05:13;;;;;;;4.80;4.60;;;19.00;32.10;;;;;;5032813;28;20411;-74
2021/04/30 02:07:39;;;;;;;4.83;4.63;;;19.00;32.10;;;;;;5033196;28;20438;-74
2021/04/30 02:10:10;;;;;;;4.80;4.57;;;19.00;32.10;;;;;;5033249;28;20177;-74
2021/04/30 02:12:35;;;;;;;4.77;4.57;;;19.00;32.10;;;;;;5032816;28;20200;-74
2021/04/30 02:15:01;;;;;;;4.23;4.03;;;19.00;32.00;;;;;;5032730;28;20451;-74
2021/04/30 02:17:30;;;;;;;4.97;4.67;;;19.00;32.10;;;;;;5032895;28;20220;-74
2021/04/30 02:19:56;;;;;;;5.23;4.97;;;19.00;32.10;;;;;;5032646;28;20588;-74
2021/04/30 02:22:22;;;;;;;4.23;3.93;;;19.00;32.10;;;;;;5031742;28;20419;-74
2021/04/30 02:24:48;;;;;;;4.70;4.40;;;19.00;32.00;;;;;;5032778;28;20176;-74
2021/04/30 02:27:13;;;;;;;4.03;3.90;;;19.00;32.00;;;;;;5032382;28;20506;-74
2021/04/30 02:29:39;;;;;;;4.40;4.20;;;19.00;32.10;;;;;;5032677;28;20256;-74
2021/04/30 02:32:04;;;;;;;4.13;3.93;;;19.00;32.10;;;;;;5032783;28;20654;-74
2021/04/30 02:34:30;;;;;;;4.37;4.17;;;19.00;32.10;;;;;;5031206;28;20223;-74
2021/04/30 02:36:55;;;;;;;4.40;4.20;;;19.00;32.00;;;;;;5032665;28;20264;-74
2021/04/30 02:39:24;;;;;;;4.33;4.13;;;19.00;32.00;;;;;;5032642;28;20212;-74
2021/04/30 02:41:49;;;;;;;4.60;4.40;;;18.90;32.00;;;;;;5032347;28;20202;-74
2021/04/30 02:44:15;;;;;;;4.80;4.50;;;19.00;32.00;;;;;;5032628;28;20415;-74
2021/04/30 02:46:41;;;;;;;4.50;4.30;;;19.00;32.00;;;;;;5032289;28;20728;-74
2021/04/30 02:49:06;;;;;;;3.90;3.73;;;18.90;32.00;;;;;;5032080;28;20315;-74
2021/04/30 02:51:33;;;;;;;3.70;3.60;;;18.90;32.00;;;;;;5031196;28;20678;-74
2021/04/30 02:53:58;;;;;;;4.33;4.13;;;18.90;31.90;;;;;;5032411;28;20168;-74
2021/04/30 02:56:24;;;;;;;4.23;4.03;;;18.90;32.00;;;;;;5031995;28;20830;-74
2021/04/30 02:58:53;;;;;;;5.10;4.70;;;18.90;32.00;;;;;;5032258;28;20201;-74
2021/04/30 03:01:19;;;;;;;4.30;4.10;;;18.90;32.00;;;;;;5032427;28;20169;-74
2021/04/30 03:03:45;;;;;;;4.50;4.30;;;18.90;32.00;;;;;;5032085;28;20762;-74
2021/04/30 03:06:11;;;;;;;5.10;4.90;;;18.90;32.00;;;;;;5032087;28;20177;-74
2021/04/30 03:08:36;;;;;;;4.40;4.20;;;18.90;32.00;;;;;;5032159;28;20239;-74
2021/04/30 03:11:02;;;;;;;5.20;4.90;;;18.90;32.00;;;;;;5032049;28;20887;-74
2021/04/30 03:13:27;;;;;;;4.73;4.53;;;18.90;32.00;;;;;;5031275;28;20200;-74
2021/04/30 03:15:53;;;;;;;4.03;3.83;;;18.90;32.00;;;;;;5030524;28;20223;-72
2021/04/30 03:18:18;;;;;;;4.57;4.37;;;18.90;32.00;;;;;;5035386;28;20563;-74
2021/04/30 03:20:44;;;;;;;4.10;3.90;;;18.90;32.00;;;;;;5037648;28;20177;-74
2021/04/30 03:23:09;;;;;;;4.60;4.40;;;18.90;32.00;;;;;;5036115;28;20222;-74
2021/04/30 03:25:36;;;;;;;4.00;3.80;;;18.90;32.00;;;;;;5034534;28;20267;-74
2021/04/30 03:28:01;;;;;;;4.90;4.70;;;18.90;32.00;;;;;;5031543;28;20258;-74
2021/04/30 03:30:27;;;;;;;4.10;3.90;;;18.90;32.00;;;;;;5031824;28;20416;-74
2021/04/30 03:32:52;;;;;;;4.50;4.30;;;18.90;32.00;;;;;;5031857;28;20203;-74
2021/04/30 03:35:18;;;;;;;4.20;4.00;;;18.80;31.90;;;;;;5031518;28;20181;-74
2021/04/30 03:37:45;;;;;;;4.20;4.00;;;18.90;32.00;;;;;;5031927;28;20184;-74
2021/04/30 03:40:11;;;;;;;3.60;3.50;;;18.90;32.00;;;;;;5032310;28;20434;-74
2021/04/30 03:42:37;;;;;;;4.00;3.80;;;18.90;32.00;;;;;;5031735;28;20407;-71
2021/04/30 03:45:03;;;;;;;4.60;4.40;;;18.90;32.00;;;;;;5031540;28;20898;-70
2021/04/30 03:47:28;;;;;;;4.73;4.53;;;19.00;32.10;;;;;;5032039;28;20192;-72
2021/04/30 03:49:54;;;;;;;4.97;4.77;;;19.10;31.80;;;;;;5031748;28;20494;-72
2021/04/30 03:52:19;;;;;;;5.43;5.10;;;19.30;31.70;;;;;;5031662;28;20193;-70
2021/04/30 03:54:45;;;;;;;4.93;4.73;;;19.40;31.40;;;;;;5032226;28;20169;-70
2021/04/30 03:57:10;;;;;;;5.30;5.00;;;19.50;31.20;;;;;;5031060;28;20854;-70
2021/04/30 03:59:36;;;;;;;5.70;5.40;;;19.60;30.90;;;;;;5031550;28;20183;-70
2021/04/30 04:02:02;;;;;;;5.20;4.97;;;19.70;30.80;;;;;;5031592;28;20177;-69
2021/04/30 04:04:27;;;;;;;5.03;4.83;;;19.70;30.60;;;;;;5030466;28;20231;-70
2021/04/30 04:06:53;;;;;;;5.33;5.13;;;19.80;30.50;;;;;;5030389;28;20200;-70
2021/04/30 04:09:18;;;;;;;4.93;4.73;;;19.80;30.40;;;;;;5031508;28;20193;-70
2021/04/30 04:11:45;;;;;;;5.47;5.17;;;19.90;30.30;;;;;;5031130;28;20570;-71
2021/04/30 04:14:10;;;;;;;5.10;4.80;;;19.90;30.30;;;;;;5031176;28;20180;-70
2021/04/30 04:16:36;;;;;;;5.00;4.70;;;19.90;30.40;;;;;;5031403;28;20407;-71
2021/04/30 04:19:02;;;;;;;4.80;4.50;;;19.90;30.40;;;;;;5031064;28;20562;-70
2021/04/30 04:21:27;;;;;;;5.33;5.10;;;20.00;30.40;;;;;;5031458;28;20177;-70
2021/04/30 04:23:53;;;;;;;5.03;4.77;;;20.00;30.40;;;;;;5032998;28;20176;-69
2021/04/30 04:26:18;;;;;;;5.13;4.83;;;20.00;30.30;;;;;;5034608;28;20188;-70
2021/04/30 04:28:44;;;;;;;4.60;4.40;;;20.00;30.30;;;;;;5034971;28;20192;-69
2021/04/30 04:31:09;;;;;;;5.07;4.80;;;20.00;30.30;;;;;;5035014;28;20172;-70
2021/04/30 04:33:35;;;;;;;6.20;5.57;;;20.00;30.30;;;;;;5034859;28;20176;-70
2021/04/30 04:36:01;;;;;;;5.40;4.90;;;20.00;30.40;;;;;;5034785;28;20175;-70
2021/04/30 04:38:27;;;;;;;5.97;5.57;;;20.00;30.40;;;;;;5034984;28;20197;-70
2021/04/30 04:40:53;;;;;;;5.07;4.77;;;20.10;30.40;;;;;;5034478;28;20165;-70
2021/04/30 04:43:19;;;;;;;5.17;4.97;;;20.00;30.40;;;;;;5034793;28;20438;-70
2021/04/30 04:45:44;;;;;;;5.00;4.80;;;20.10;30.60;;;;;;5034639;28;20827;-69
2021/04/30 04:48:10;;;;;;;5.03;4.70;;;20.00;30.60;;;;;;5034453;28;20563;-70
2021/04/30 04:50:35;;;;;;;5.17;4.97;;;20.00;30.70;;;;;;5034738;28;20255;-71
2021/04/30 04:53:01;;;;;;;4.87;4.67;;;20.00;30.70;;;;;;5034702;28;20715;-69
2021/04/30 04:55:26;;;;;;;5.73;5.30;;;20.00;30.70;;;;;;5034124;28;20251;-70
2021/04/30 04:57:52;;;;;;;5.47;5.00;;;20.00;30.80;;;;;;5034457;28;20193;-70
2021/04/30 05:00:18;;;;;;;5.30;5.00;;;20.00;30.80;;;;;;5040735;28;20223;-70
2021/04/30 05:02:44;;;;;;;5.53;5.10;;;20.00;30.80;;;;;;5036535;28;20292;-70
2021/04/30 05:05:10;;;;;;;5.00;4.70;;;20.00;30.90;;;;;;5034287;28;20984;-71
2021/04/30 05:07:35;;;;;;;5.03;4.70;;;20.00;31.00;;;;;;5034400;28;20231;-70
2021/04/30 05:10:02;;;;;;;4.87;4.57;;;20.00;31.10;;;;;;5034005;28;20415;-70
2021/04/30 05:12:28;;;;;;;5.13;4.73;;;20.00;31.40;;;;;;5034116;28;20678;-70
2021/04/30 05:14:54;;;;;;;5.10;4.70;;;20.00;31.40;;;;;;5034138;28;20427;-71
2021/04/30 05:17:19;;;;;;;5.40;5.10;;;20.00;31.40;;;;;;5033782;28;20605;-70
2021/04/30 05:19:45;;;;;;;6.40;5.90;;;20.00;31.50;;;;;;5034298;28;20180;-71
2021/04/30 05:22:12;;;;;;;5.13;4.73;;;20.00;31.40;;;;;;5032842;28;20198;-71
2021/04/30 05:24:41;;;;;;;5.20;4.90;;;20.00;31.40;;;;;;5033733;28;20177;-70
2021/04/30 05:27:10;;;;;;;8.30;5.00;;;20.00;31.40;;;;;;5034008;28;20443;-70
2021/04/30 05:29:39;;;;;;;5.23;4.83;;;20.00;31.40;;;;;;5032748;28;20423;-70
2021/04/30 05:32:04;;;;;;;5.50;5.00;;;20.00;31.40;;;;;;5033552;28;20462;-70
2021/04/30 05:34:30;;;;;;;5.80;5.40;;;20.00;31.40;;;;;;5031638;28;20420;-70
2021/04/30 05:36:55;;;;;;;5.63;5.23;;;20.00;31.30;;;;;;5021684;28;20216;-70
2021/04/30 05:39:21;;;;;;;5.20;4.70;;;20.00;31.40;;;;;;5015904;28;20602;-72
2021/04/30 05:41:46;;;;;;;6.30;4.97;;;20.00;31.40;;;;;;5013926;28;20200;-71
2021/04/30 05:44:13;;;;;;;5.53;5.13;;;20.00;31.60;;;;;;5012697;28;20177;-71
2021/04/30 05:46:38;;;;;;;5.73;5.43;;;20.00;31.70;;;;;;5013477;28;20173;-72
2021/04/30 05:49:04;;;;;;;9.83;6.53;;;19.90;31.80;;;;;;5012539;28;20499;-71
2021/04/30 05:51:29;;;;;;;9.47;7.27;;;19.90;31.70;;;;;;5013746;28;20177;-71
2021/04/30 05:53:55;;;;;;;10.47;6.90;;;19.80;31.50;;;;;;5013312;28;20169;-70
2021/04/30 05:56:20;;;;;;;11.00;7.70;;;19.80;31.10;;;;;;5013553;28;20169;-71
2021/04/30 05:58:46;;;;;;;7.70;6.90;;;19.80;30.30;;;;;;5013616;28;20190;-70
2021/04/30 06:01:12;;;;;;;7.40;6.60;;;19.70;29.90;;;;;;5013228;28;20166;-72
2021/04/30 06:03:38;;;;;;;7.27;6.70;;;19.70;29.80;;;;;;5013643;28;20427;-71
2021/04/30 06:06:04;;;;;;;10.23;7.63;;;19.60;29.70;;;;;;5013370;28;20735;-73
2021/04/30 06:08:29;;;;;;;12.93;7.47;;;19.60;29.10;;;;;;5013194;28;20651;-71
2021/04/30 06:10:55;;;;;;;7.40;6.90;;;19.60;29.40;;;;;;5012178;28;20174;-71
2021/04/30 06:13:21;;;;;;;8.40;6.83;;;19.60;28.90;;;;;;5013256;28;20552;-71
2021/04/30 06:15:46;;;;;;;7.53;6.17;;;19.60;28.60;;;;;;5013085;28;20200;-72
2021/04/30 06:18:12;;;;;;;6.20;5.80;;;19.50;28.80;;;;;;5013151;28;20185;-71
2021/04/30 06:20:37;;;;;;;6.07;5.67;;;19.50;28.10;;;;;;5013455;28;20209;-71
2021/04/30 06:23:03;;;;;;;7.10;6.43;;;19.50;28.10;;;;;;5013134;28;20170;-71
2021/04/30 06:25:28;;;;;;;5.70;5.20;;;19.40;28.20;;;;;;5012803;28;20259;-72
2021/04/30 06:27:54;;;;;;;6.33;6.03;;;19.50;27.90;;;;;;5013144;28;20184;-72
2021/04/30 06:30:19;;;;;;;5.70;5.30;;;19.40;28.10;;;;;;5012211;28;20173;-70
2021/04/30 06:32:45;;;;;;;6.53;6.03;;;19.40;28.40;;;;;;5012796;28;20227;-71
2021/04/30 06:35:11;;;;;;;5.53;5.00;;;19.40;28.50;;;;;;5012885;28;20180;-70
2021/04/30 06:37:39;;;;;;;5.73;5.13;;;19.50;28.40;;;;;;5013102;28;20247;-72
2021/04/30 06:40:06;;;;;;;6.40;5.10;;;19.50;28.10;;;;;;5012689;28;20980;-73
2021/04/30 06:42:31;;;;;;;7.43;5.30;;;19.50;27.90;;;;;;5012973;28;20443;-71
2021/04/30 06:44:57;;;;;;;5.50;5.10;;;19.50;27.70;;;;;;5012382;28;21060;-71
2021/04/30 06:47:22;;;;;;;5.27;4.97;;;19.60;28.20;;;;;;5011641;28;20200;-70
2021/04/30 06:49:48;;;;;;;6.47;5.47;;;19.60;28.50;;;;;;5012269;28;20179;-71
2021/04/30 06:52:14;;;;;;;7.10;5.67;;;19.60;28.20;;;;;;5011353;28;20223;-71
2021/04/30 06:54:39;;;;;;;6.53;4.77;;;19.70;28.20;;;;;;5012585;28;20259;-71
2021/04/30 06:57:05;;;;;;;5.23;4.73;;;19.70;28.20;;;;;;5012523;28;20182;-71
2021/04/30 06:59:31;;;;;;;4.70;4.50;;;19.70;28.20;;;;;;5012750;28;20172;-71
2021/04/30 07:01:56;;;;;;;5.30;4.90;;;19.70;27.90;;;;;;5012710;28;20510;-70
2021/04/30 07:04:22;;;;;;;5.33;4.77;;;19.80;28.10;;;;;;5012549;28;20644;-71
2021/04/30 07:06:47;;;;;;;5.23;4.40;;;19.70;28.00;;;;;;5012214;28;20188;-71
2021/04/30 07:09:13;;;;;;;5.77;5.10;;;19.80;28.00;;;;;;5012043;28;20200;-73
2021/04/30 07:11:38;;;;;;;4.93;4.53;;;19.70;28.20;;;;;;5022781;28;20212;-71
2021/04/30 07:14:05;;;;;;;4.77;4.30;;;19.70;28.30;;;;;;5039863;28;20188;-70
2021/04/30 07:16:31;;;;;;;4.77;4.47;;;19.70;28.20;;;;;;5049040;28;20172;-71
2021/04/30 07:18:57;;;;;;;5.90;4.73;;;19.80;28.50;;;;;;5030871;28;20953;-71
2021/04/30 07:21:23;;;;;;;8.97;4.30;;;19.80;28.50;;;;;;5031691;28;20410;-71
2021/04/30 07:23:48;;;;;;;5.77;5.17;;;19.80;28.50;;;;;;5031713;28;20222;-72
2021/04/30 07:26:14;;;;;;;5.70;5.20;;;19.80;28.50;;;;;;5031606;28;20171;-71
2021/04/30 07:28:39;;;;;;;8.37;4.70;;;19.80;28.60;;;;;;5031749;28;20249;-70
2021/04/30 07:31:05;;;;;;;5.27;4.87;;;19.80;28.60;;;;;;5031780;28;20172;-72
2021/04/30 07:33:30;;;;;;;5.13;4.83;;;19.80;28.60;;;;;;5031618;28;20204;-72
2021/04/30 07:35:56;;;;;;;5.13;4.73;;;19.80;28.60;;;;;;5030202;28;20173;-72
2021/04/30 07:38:22;;;;;;;5.10;4.90;;;19.80;28.60;;;;;;5031336;28;20228;-72
2021/04/30 07:40:47;;;;;;;5.27;4.90;;;19.80;28.60;;;;;;5031798;28;20260;-72
2021/04/30 07:43:15;;;;;;;4.60;4.30;;;19.80;28.60;;;;;;5031866;28;20640;-72
2021/04/30 07:45:43;;;;;;;4.87;4.67;;;19.80;28.60;;;;;;5032072;28;20165;-72
2021/04/30 07:48:09;;;;;;;6.07;5.07;;;19.80;28.60;;;;;;5032566;28;20711;-71
2021/04/30 07:50:36;;;;;;;4.80;4.60;;;19.80;28.60;;;;;;5032170;28;20410;-71
2021/04/30 07:53:02;;;;;;;5.43;5.03;;;19.80;28.60;;;;;;5031624;28;20818;-71
2021/04/30 07:55:28;;;;;;;5.53;5.03;;;19.80;28.60;;;;;;5029793;28;20421;-72
2021/04/30 07:57:54;;;;;;;5.03;4.83;;;19.80;28.70;;;;;;5029877;28;20189;-72
2021/04/30 08:00:20;;;;;;;4.70;4.30;;;19.80;28.70;;;;;;5035293;28;20399;-74
2021/04/30 08:02:50;;;;;;;5.20;4.80;;;19.70;28.70;;;;;;5034985;28;20250;-75
2021/04/30 08:05:16;;;;;;;4.70;4.40;;;19.70;28.80;;;;;;5034149;28;20419;-74
2021/04/30 08:07:42;;;;;;;4.87;4.57;;;19.60;28.70;;;;;;5034296;28;20855;-74
2021/04/30 08:10:09;;;;;;;5.20;4.90;;;19.60;28.80;;;;;;5034293;28;20422;-74
2021/04/30 08:12:35;;;;;;;5.67;5.17;;;19.60;28.90;;;;;;5035584;28;20450;-73
2021/04/30 08:15:01;;;;;;;4.63;4.30;;;19.60;29.00;;;;;;5034822;28;20456;-74
2021/04/30 08:17:26;;;;;;;4.93;4.70;;;19.50;29.00;;;;;;5035329;28;20189;-74
2021/04/30 08:19:57;;;;;;;4.90;4.60;;;19.50;29.10;;;;;;5035026;28;20177;-73
2021/04/30 08:22:23;;;;;;;4.43;4.13;;;19.50;29.20;;;;;;5034971;28;20173;-73
2021/04/30 08:24:49;;;;;;;5.20;4.37;;;19.40;29.60;;;;;;5035163;28;20493;-73
2021/04/30 08:27:14;;;;;;;4.90;4.50;;;19.40;29.60;;;;;;5033649;28;20549;-76
2021/04/30 08:29:40;;;;;;;4.63;4.43;;;19.40;29.50;;;;;;5035132;28;20208;-73
2021/04/30 08:32:05;;;;;;;4.67;4.37;;;19.40;29.60;;;;;;5035105;28;20756;-73
2021/04/30 08:34:31;;;;;;;4.30;4.10;;;19.50;29.60;;;;;;5034860;28;20177;-74
2021/04/30 08:36:56;;;;;;;4.43;4.20;;;19.50;29.60;;;;;;5034505;28;20689;-73
2021/04/30 08:39:22;;;;;;;4.10;3.90;;;19.50;29.60;;;;;;5034848;28;20196;-74
2021/04/30 08:41:49;;;;;;;4.47;4.27;;;19.40;29.60;;;;;;5033528;28;20192;-74
2021/04/30 08:44:15;;;;;;;4.80;4.60;;;19.40;29.60;;;;;;5034634;28;20189;-75
2021/04/30 08:46:43;;;;;;;5.13;4.73;;;19.40;29.60;;;;;;5034671;28;20411;-74
2021/04/30 08:49:10;;;;;;;3.93;3.80;;;19.40;29.60;;;;;;5033455;28;20486;-74
2021/04/30 08:51:37;;;;;;;5.20;4.80;;;19.40;29.60;;;;;;5034292;28;20427;-74
2021/04/30 08:54:03;;;;;;;4.30;4.10;;;19.40;29.60;;;;;;5033385;28;20473;-74
2021/04/30 08:56:30;;;;;;;4.73;4.27;;;19.40;29.60;;;;;;5035333;28;20430;-74
2021/04/30 08:58:56;;;;;;;6.83;4.80;;;19.40;29.60;;;;;;5037253;28;20490;-73
2021/04/30 09:01:23;;;;;;;5.00;4.47;;;19.40;29.60;;;;;;5035074;28;20423;-74
2021/04/30 09:04:03;;;;;;;4.47;4.27;;;19.40;30.00;;;;;;5039416;28;20496;-75
2021/04/30 09:06:35;;;;;;;4.50;4.30;;;19.40;29.60;;;;;;5033968;28;20416;-74
2021/04/30 09:09:15;;;;;;;5.13;4.83;;;19.40;29.60;;;;;;5016621;28;20463;-75
2021/04/30 09:11:49;;;;;;;4.20;4.00;;;19.30;29.50;;;;;;5036502;28;21071;-74
2021/04/30 09:14:58;;;;;;;5.13;4.73;;;19.30;29.50;;;;;;5041101;28;20944;-75
2021/04/30 09:17:36;;;;;;;4.30;4.10;;;19.30;29.50;;;;;;5029312;28;20840;-75
2021/04/30 09:20:03;;;;;;;4.50;3.80;;;19.30;29.50;;;;;;5032739;28;20481;-73
2021/04/30 09:22:37;;;;;;;4.10;4.00;;;19.30;29.50;;;;;;5043746;28;20423;-73
2021/04/30 09:25:08;;;;;;;4.50;4.20;;;19.30;29.70;;;;;;5024606;28;20416;-73
2021/04/30 09:27:43;;;;;;;4.77;4.37;;;19.30;29.70;;;;;;5032653;28;20473;-72
2021/04/30 09:30:26;;;;;;;4.80;4.40;;;19.30;29.70;;;;;;5033878;28;20407;-73
2021/04/30 09:33:17;;;;;;;4.17;3.97;;;19.20;29.70;;;;;;5033872;28;20873;-73
2021/04/30 09:35:42;;;;;;;4.23;4.03;;;19.20;29.70;;;;;;5033545;28;20410;-74
2021/04/30 09:38:20;;;;;;;4.20;4.00;;;19.20;29.70;;;;;;5033617;28;20519;-75
2021/04/30 09:40:47;;;;;;;4.53;4.13;;;19.20;29.80;;;;;;5033786;28;20546;-73
2021/04/30 09:43:14;;;;;;;4.67;4.47;;;19.20;29.90;;;;;;5033230;28;20447;-74
2021/04/30 09:45:44;;;;;;;4.70;4.30;;;19.20;29.90;;;;;;5033674;28;20407;-74
2021/04/30 09:48:10;;;;;;;4.27;3.97;;;19.20;29.90;;;;;;5034041;28;20435;-72
2021/04/30 09:50:36;;;;;;;4.37;4.07;;;19.20;29.90;;;;;;5033250;28;20916;-73
2021/04/30 09:53:09;;;;;;;4.70;4.30;;;19.20;29.90;;;;;;5032332;28;20455;-73
2021/04/30 09:55:46;;;;;;;4.07;3.87;;;19.20;30.00;;;;;;5031829;28;20420;-73
2021/04/30 09:58:19;;;;;;;4.33;4.10;;;19.20;30.00;;;;;;5033625;28;20434;-74
2021/04/30 10:00:50;;;;;;;4.60;4.30;;;19.20;30.00;;;;;;5032089;28;20432;-73
2021/04/30 10:03:24;;;;;;;4.33;4.00;;;19.20;30.00;;;;;;5034615;28;20815;-72
2021/04/30 10:06:17;;;;;;;4.37;3.97;;;19.20;30.00;;;;;;5040094;28;20469;-73
2021/04/30 10:09:05;;;;;;;4.60;4.30;;;19.20;30.00;;;;;;5033126;28;20489;-74
2021/04/30 10:11:32;;;;;;;4.23;4.03;;;19.20;30.00;;;;;;5037393;28;20418;-75
2021/04/30 10:13:58;;;;;;;4.30;4.10;;;19.20;30.00;;;;;;5033051;28;20536;-72
2021/04/30 10:16:24;;;;;;;3.70;3.50;;;19.10;30.00;;;;;;5029448;28;20415;-73
2021/04/30 10:18:49;;;;;;;4.00;3.80;;;19.10;30.00;;;;;;5032795;28;20961;-73
2021/04/30 10:21:17;;;;;;;4.97;4.47;;;19.10;30.00;;;;;;5032352;28;20172;-73
2021/04/30 10:23:49;;;;;;;4.13;4.03;;;19.10;30.00;;;;;;5032925;28;20176;-71
2021/04/30 10:26:16;;;;;;;4.57;4.27;;;19.10;30.00;;;;;;5032711;28;20414;-73
2021/04/30 10:28:48;;;;;;;4.00;3.90;;;19.10;30.70;;;;;;5032638;28;20453;-71
2021/04/30 10:31:17;;;;;;;4.77;4.47;;;19.10;30.00;;;;;;5032834;28;20404;-73
2021/04/30 10:33:57;;;;;;;4.07;3.87;;;19.10;30.00;;;;;;5033017;28;21027;-75
2021/04/30 10:36:32;;;;;;;4.00;3.80;;;19.10;30.00;;;;;;5031542;28;20991;-71
2021/04/30 10:39:03;;;;;;;4.83;4.43;;;19.10;30.30;;;;;;5031906;28;20841;-70
2021/04/30 10:41:37;;;;;;;4.40;4.20;;;19.10;30.40;;;;;;5031092;28;20477;-71
2021/04/30 10:44:11;;;;;;;4.63;4.23;;;19.30;30.50;;;;;;5031239;28;20428;-71
2021/04/30 10:46:37;;;;;;;6.43;4.93;;;19.30;30.50;;;;;;5034706;28;20983;-73
2021/04/30 10:49:06;;;;;;;5.30;5.00;;;19.40;31.40;;;;;;5037666;28;20439;-72
2021/04/30 10:51:32;;;;;;;5.10;4.67;;;19.40;31.20;;;;;;5032134;28;20177;-72
2021/04/30 10:54:24;;;;;;;5.00;4.60;;;19.40;31.10;;;;;;5032145;28;20408;-72
2021/04/30 10:57:18;;;;;;;5.00;4.50;;;19.30;30.80;;;;;;5032230;28;20776;-72
2021/04/30 10:59:52;;;;;;;5.13;4.63;;;19.30;31.10;;;;;;5032671;28;21001;-73
2021/04/30 11:02:30;;;;;;;5.10;4.80;;;19.30;31.00;;;;;;5032316;28;20415;-74
2021/04/30 11:05:20;;;;;;;7.63;4.87;;;19.30;30.80;;;;;;5032110;28;20406;-73
2021/04/30 11:07:53;;;;;;;4.63;4.33;;;19.30;31.00;;;;;;5032112;28;20439;-72
2021/04/30 11:10:22;;;;;;;5.03;4.70;;;19.30;31.00;;;;;;5032281;28;20947;-71
2021/04/30 11:12:58;;;;;;;5.07;4.67;;;19.30;30.90;;;;;;5031811;28;20455;-70
2021/04/30 11:15:24;;;;;;;4.77;4.40;;;19.30;30.90;;;;;;5031855;28;20441;-72
2021/04/30 11:17:54;;;;;;;4.97;4.60;;;19.30;31.00;;;;;;5032156;28;20434;-71
2021/04/30 11:20:22;;;;;;;5.73;4.60;;;19.30;30.90;;;;;;5031669;28;20457;-72
2021/04/30 11:23:18;;;;;;;4.73;4.33;;;19.30;31.00;;;;;;5031773;28;20427;-73
2021/04/30 11:26:05;;;;;;;5.57;5.10;;;19.30;31.00;;;;;;5031868;28;20435;-71
2021/04/30 11:28:31;;;;;;;4.77;4.37;;;19.30;31.10;;;;;;5031616;28;20497;-72
2021/04/30 11:31:02;;;;;;;4.50;4.20;;;19.30;31.10;;;;;;5032330;28;20913;-74
2021/04/30 11:33:28;;;;;;;5.03;4.70;;;19.30;31.10;;;;;;5030991;28;20211;-73
2021/04/30 11:35:54;;;;;;;5.60;5.10;;;19.30;31.10;;;;;;5031456;28;20510;-73
2021/04/30 11:38:37;;;;;;;5.07;4.57;;;19.30;31.80;;;;;;5032041;28;20510;-73
2021/04/30 11:41:02;;;;;;;5.10;4.80;;;19.40;32.20;;;;;;5032651;28;20898;-74
2021/04/30 11:43:28;;;;;;;4.67;4.47;;;19.40;32.00;;;;;;5030316;28;20426;-72
2021/04/30 11:45:54;;;;;;;6.50;4.83;;;19.50;31.70;;;;;;5029590;28;20451;-72
2021/04/30 11:48:27;;;;;;;4.47;4.13;;;19.50;31.80;;;;;;5031929;28;20197;-73
2021/04/30 11:51:07;;;;;;;4.67;4.37;;;19.60;31.70;;;;;;5030091;28;20425;-73
2021/04/30 11:53:34;;;;;;;4.27;3.87;;;19.70;31.80;;;;;;5037048;28;20474;-72
2021/04/30 11:56:00;;;;;;;4.67;4.47;;;19.80;31.70;;;;;;5037748;28;20435;-72
2021/04/30 11:58:46;;;;;;;5.33;4.77;;;19.80;31.50;;;;;;5040500;28;20473;-71
2021/04/30 12:01:15;;;;;;;4.97;4.57;;;19.80;31.70;;;;;;5025750;28;20424;-71
2021/04/30 12:03:48;;;;;;;4.77;4.27;;;19.90;31.50;;;;;;5029883;28;20447;-70
2021/04/30 12:06:16;;;;;;;5.80;4.60;;;20.00;31.70;;;;;;5031543;28;21076;-71
2021/04/30 12:08:43;;;;;;;5.97;4.40;;;20.00;31.60;;;;;;5031740;28;20436;-70
2021/04/30 12:11:09;;;;;;;4.63;4.37;;;20.00;31.60;;;;;;5031100;28;20419;-71
2021/04/30 12:13:39;;;;;;;5.50;4.97;;;20.00;31.60;;;;;;5031615;28;20474;-71
2021/04/30 12:16:17;;;;;;;5.40;4.97;;;20.00;31.50;;;;;;5032982;28;20424;-72
2021/04/30 12:18:43;;;;;;;5.20;4.50;;;20.00;31.50;;;;;;5033350;28;20486;-72
2021/04/30 12:21:09;;;;;;;6.73;4.47;;;20.00;31.50;;;;;;5031427;28;20408;-72
2021/04/30 12:23:36;;;;;;;6.27;4.30;;;20.00;31.50;;;;;;5031687;28;20987;-73
2021/04/30 12:26:03;;;;;;;7.50;4.50;;;20.00;31.60;;;;;;5031251;28;20418;-72
2021/04/30 12:28:31;;;;;;;6.13;5.20;;;20.00;31.50;;;;;;5031480;28;20424;-73
2021/04/30 12:31:05;;;;;;;6.00;4.23;;;19.90;31.50;;;;;;5033363;28;20407;-73
2021/04/30 12:33:48;;;;;;;5.10;4.60;;;20.00;31.50;;;;;;5035241;28;20454;-71
2021/04/30 12:36:33;;;;;;;4.73;4.30;;;19.90;31.50;;;;;;5031364;28;20431;-72
2021/04/30 12:39:02;;;;;;;5.10;4.70;;;19.90;31.60;;;;;;5031189;28;20430;-71
2021/04/30 12:41:31;;;;;;;7.03;5.00;;;19.90;31.60;;;;;;5031087;28;20422;-71
2021/04/30 12:44:02;;;;;;;5.70;4.60;;;19.90;31.90;;;;;;5031086;28;20416;-71
2021/04/30 12:46:31;;;;;;;4.87;4.57;;;19.90;31.70;;;;;;5034155;28;20447;-73
2021/04/30 12:48:58;;;;;;;7.00;4.80;;;19.80;31.70;;;;;;5034276;28;20470;-72